Time;durP1;ratioP1;P1;durP2;ratioP2;P2;SDS_P1;SDS_P2;PMS_P1;PMS_P2;Temp;Humidity;BMP_temperature;BMP_pressure;BME280_temperature;BME280_humidity;BME280_pressure;Samples;Min_cycle;Max_cycle;Signal;HPM_P1;HPM_P2
2023/01/18 00:01:13;;;;;;;30.50;16.55;;;-2.30;99.90;;;-144.05;81.23;125687.94;5032881;28;20033;-81
2023/01/18 00:03:41;;;;;;;39.85;17.55;;;-2.30;99.90;;;-144.05;80.99;125687.94;5032945;28;20033;-83
2023/01/18 00:06:10;;;;;;;30.98;16.27;;;-2.30;99.90;;;-144.05;81.12;125687.94;5032961;28;20033;-80
2023/01/18 00:08:38;;;;;;;28.90;15.85;;;-2.30;99.90;;;-144.05;80.92;125687.94;5014583;28;20041;-83
2023/01/18 00:11:11;;;;;;;37.88;17.15;;;-2.30;99.90;;;-144.05;81.07;125687.94;5015133;28;20037;-82
2023/01/18 00:13:38;;;;;;;46.65;19.27;;;-2.30;99.90;;;-144.05;81.55;125687.94;5032757;28;20033;-81
2023/01/18 00:16:22;;;;;;;38.63;17.25;;;-2.20;99.90;;;-144.05;81.34;125687.94;5032759;28;20380;-82
2023/01/18 00:18:58;;;;;;;39.88;18.60;;;-2.20;99.90;;;-144.05;80.57;125687.94;5014677;28;20029;-82
2023/01/18 00:21:26;;;;;;;32.55;17.85;;;-2.30;99.90;;;-144.05;80.51;125687.94;5014816;28;20491;-83
2023/01/18 00:23:55;;;;;;;38.75;17.73;;;-2.30;99.90;;;-144.05;80.69;125687.94;5014620;28;20407;-80
2023/01/18 00:26:21;;;;;;;42.80;19.75;;;-2.40;99.90;;;-144.05;81.15;125687.94;5032325;28;20029;-80
2023/01/18 00:28:47;;;;;;;36.50;20.35;;;-2.40;99.90;;;-144.05;81.27;125687.94;5032247;28;20022;-83
2023/01/18 00:31:18;;;;;;;34.33;17.92;;;-2.40;99.90;;;-144.05;81.03;125687.94;5032968;28;20097;-83
2023/01/18 00:33:48;;;;;;;29.92;16.88;;;-2.40;99.90;;;-144.05;80.72;125687.94;5032749;28;20036;-84
2023/01/18 00:36:16;;;;;;;38.72;19.30;;;-2.50;99.90;;;-144.05;80.72;125687.94;5032824;28;20026;-82
2023/01/18 00:38:43;;;;;;;37.78;19.98;;;-2.50;99.90;;;-144.05;80.54;125687.94;5032147;28;20017;-82
2023/01/18 00:41:09;;;;;;;37.13;18.33;;;-2.60;99.90;;;-144.05;80.66;125687.94;5032257;28;20095;-81
2023/01/18 00:43:37;;;;;;;32.50;17.20;;;-2.60;99.90;;;-144.05;80.39;125687.94;5014761;28;20045;-82
2023/01/18 00:46:20;;;;;;;29.58;17.63;;;-2.70;99.90;;;-144.05;80.45;125687.94;5014920;28;20399;-80
2023/01/18 00:48:47;;;;;;;41.83;18.63;;;-2.70;99.90;;;-144.05;80.54;125687.94;5031984;28;20103;-81
2023/01/18 00:51:20;;;;;;;30.02;16.95;;;-2.70;99.90;;;-144.05;80.02;125687.94;5014051;28;20029;-82
2023/01/18 00:53:48;;;;;;;39.42;18.02;;;-2.80;99.90;;;-144.05;80.33;125687.94;5032169;28;20105;-82
2023/01/18 00:56:20;;;;;;;39.88;18.90;;;-2.80;99.90;;;-144.05;80.60;125687.94;5014368;28;20040;-82
2023/01/18 00:58:47;;;;;;;39.78;19.98;;;-2.70;99.90;;;-144.05;80.27;125687.94;5031430;28;20493;-80
2023/01/18 01:01:14;;;;;;;37.25;19.13;;;-2.70;99.90;;;-144.05;80.52;125687.94;5014352;28;20116;-79
2023/01/18 01:06:44;;;;;;;40.55;20.05;;;-2.80;99.90;;;-144.05;80.31;125687.94;5031927;28;20080;-82
2023/01/18 01:09:27;;;;;;;39.25;20.45;;;-2.80;99.90;;;-144.05;80.59;125687.94;5031904;28;20108;-80
2023/01/18 01:26:07;;;;;;;38.40;18.25;;;-2.90;99.90;;;-144.05;80.14;125687.94;5035474;28;20051;-81
2023/01/18 01:28:53;;;;;;;44.55;20.25;;;-3.00;99.90;;;-144.05;80.27;125687.94;5017233;28;20130;-80
2023/01/18 01:31:19;;;;;;;;;;;-3.00;99.90;;;-144.05;80.16;125687.94;5034802;28;20037;-80
2023/01/18 01:33:49;;;;;;;33.47;17.58;;;-3.00;99.90;;;-144.05;80.15;125687.94;5017368;28;19909;-81
2023/01/18 01:36:24;;;;;;;33.78;18.52;;;-3.10;99.90;;;-144.05;79.86;125687.94;5035234;28;20029;-81
2023/01/18 01:38:52;;;;;;;36.03;18.80;;;-3.10;99.90;;;-144.05;79.95;125687.94;5035051;28;20033;-80
2023/01/18 01:41:32;;;;;;;35.30;18.85;;;-3.10;99.90;;;-144.05;80.17;125687.94;5035017;28;20116;-82
2023/01/18 01:44:23;;;;;;;33.70;18.58;;;-3.10;99.90;;;-144.05;80.00;125687.94;5035875;28;20104;-81
2023/01/18 01:47:10;;;;;;;34.67;19.38;;;-3.10;99.90;;;-144.05;80.02;125687.94;5032436;28;20041;-83
2023/01/18 01:49:57;;;;;;;37.75;18.90;;;-3.10;99.90;;;-144.05;80.15;125687.94;5017271;28;20029;-82
2023/01/18 01:52:36;;;;;;;36.03;19.58;;;-3.10;99.90;;;-144.05;80.15;125687.94;5017287;28;20511;-81
2023/01/18 01:55:20;;;;;;;35.92;19.23;;;-3.10;99.90;;;-144.05;79.81;125687.94;5035139;28;20390;-82
2023/01/18 01:58:04;;;;;;;39.53;19.38;;;-3.20;99.90;;;-144.05;80.12;125687.94;5017326;28;20052;-81
2023/01/18 02:00:32;;;;;;;33.88;18.95;;;-3.20;99.90;;;-144.05;80.00;125687.94;5034775;28;20032;-82
2023/01/18 02:03:04;;;;;;;33.85;17.88;;;-3.10;99.90;;;-144.05;79.84;125687.94;5034523;28;20481;-80
2023/01/18 02:05:38;;;;;;;31.08;17.02;;;-3.20;99.90;;;-144.05;79.95;125687.94;5017215;28;20244;-81
2023/01/18 02:08:10;;;;;;;26.83;14.40;;;-3.30;99.90;;;-144.05;80.32;125687.94;5034549;28;20034;-79
2023/01/18 02:10:37;;;;;;;43.70;21.27;;;-3.30;99.90;;;-144.05;80.37;125687.94;5034342;28;20283;-82
2023/01/18 02:13:09;;;;;;;34.85;19.40;;;-3.20;99.90;;;-144.05;80.14;125687.94;5034375;28;20481;-80
2023/01/18 02:16:10;;;;;;;37.75;19.20;;;-3.30;99.90;;;-144.05;79.97;125687.94;5034401;28;20037;-80
2023/01/18 02:19:07;;;;;;;33.55;17.35;;;-3.20;99.90;;;-144.05;80.18;125687.94;5033988;28;20104;-81
2023/01/18 02:21:45;;;;;;;36.65;18.17;;;-3.30;99.90;;;-144.05;80.25;125687.94;5034188;28;20029;-80
2023/01/18 02:25:05;;;;;;;38.63;18.75;;;-3.20;99.90;;;-144.05;80.23;125687.94;5016358;28;20045;-81
2023/01/18 02:27:48;;;;;;;35.47;18.65;;;-3.20;99.90;;;-144.05;79.97;125687.94;5016325;28;20025;-81
2023/01/18 02:30:54;;;;;;;36.45;17.35;;;-3.20;99.90;;;-144.05;79.80;125687.94;5033963;28;20085;-80
2023/01/18 02:33:40;;;;;;;34.17;17.90;;;-3.20;99.90;;;-144.05;79.90;125687.94;5015553;28;20073;-82
2023/01/18 02:36:06;;;;;;;34.58;18.10;;;-3.20;99.90;;;-144.05;79.64;125687.94;5033974;28;20052;-79
2023/01/18 02:38:45;;;;;;;35.05;19.25;;;-3.10;99.90;;;-144.05;79.93;125687.94;5015692;28;20112;-80
2023/01/18 02:46:29;;;;;;;42.60;19.58;;;-3.30;99.90;;;-144.05;81.14;125687.94;5016011;28;20521;-80
2023/01/18 02:47:20;;;;;;;38.95;20.02;;;-3.10;99.90;;;-144.05;81.82;125687.94;5033498;28;20566;-81
2023/01/18 02:49:45;;;;;;;42.55;22.23;;;-3.00;99.90;;;-144.05;81.37;125687.94;5033063;28;20026;-79
2023/01/18 02:52:40;;;;;;;40.10;20.58;;;-2.90;99.90;;;-144.05;80.53;125687.94;5015637;28;20040;-82
2023/01/18 02:55:38;;;;;;;44.75;19.63;;;-3.00;99.90;;;-144.05;80.34;125687.94;5015721;28;20040;-82
2023/01/18 02:58:30;;;;;;;32.13;17.17;;;-3.10;99.90;;;-144.05;80.44;125687.94;5016414;28;20048;-82
2023/01/18 03:01:46;;;;;;;40.95;20.17;;;-3.10;99.90;;;-144.05;80.24;125687.94;5033914;28;20106;-83
2023/01/18 03:04:30;;;;;;;40.58;19.67;;;-3.10;99.90;;;-144.05;79.97;125687.94;5033846;28;20037;-82
2023/01/18 03:07:12;;;;;;;39.28;18.25;;;-3.20;99.90;;;-144.05;80.66;125687.94;5033879;28;20037;-77
2023/01/18 03:09:42;;;;;;;40.63;20.30;;;-3.10;99.90;;;-144.05;80.51;125687.94;5033636;28;20053;-83
2023/01/18 03:12:25;;;;;;;43.15;20.08;;;-3.10;99.90;;;-144.05;80.35;125687.94;5015614;28;20026;-80
2023/01/18 03:15:47;;;;;;;38.90;19.48;;;-3.00;99.90;;;-144.05;80.62;125687.94;5016362;28;20069;-80
2023/01/18 03:18:36;;;;;;;36.00;18.90;;;-3.00;99.90;;;-144.05;80.67;125687.94;5027245;28;20493;-82
2023/01/18 03:21:07;;;;;;;42.47;21.17;;;-2.90;99.90;;;-144.05;81.31;125687.94;5032861;28;20507;-81
2023/01/18 03:23:41;;;;;;;42.95;20.17;;;-2.80;99.90;;;-144.05;81.32;125687.94;5033379;28;20315;-82
2023/01/18 03:26:17;;;;;;;46.30;22.25;;;-2.80;99.90;;;-144.05;81.71;125687.94;5015173;28;20121;-82
2023/01/18 03:34:53;;;;;;;37.17;18.20;;;-2.60;99.90;;;-144.05;80.44;125687.94;5033355;28;20113;-81
2023/01/18 03:37:38;;;;;;;41.03;19.23;;;-2.70;99.90;;;-144.05;80.21;125687.94;5015214;28;20084;-81
2023/01/18 03:40:11;;;;;;;35.63;20.52;;;-2.80;99.90;;;-144.05;80.35;125687.94;5015089;28;20075;-82
2023/01/18 03:43:13;;;;;;;33.17;17.40;;;-2.90;99.90;;;-144.05;80.29;125687.94;5014860;28;20083;-81
2023/01/18 03:45:46;;;;;;;36.63;19.17;;;-3.00;99.90;;;-144.05;80.36;125687.94;5031524;28;20048;-82
2023/01/18 03:48:14;;;;;;;36.92;20.35;;;-3.00;99.90;;;-144.05;80.13;125687.94;5032740;28;20049;-82
2023/01/18 03:51:18;;;;;;;37.53;19.30;;;-3.00;99.90;;;-144.05;80.28;125687.94;5032644;28;20030;-80
2023/01/18 03:54:28;;;;;;;36.75;19.25;;;-3.00;99.90;;;-144.05;80.60;125687.94;5014893;28;20029;-83
2023/01/18 03:57:07;;;;;;;40.85;18.42;;;-3.00;99.90;;;-144.05;80.32;125687.94;5032794;28;20021;-83
2023/01/18 03:59:38;;;;;;;44.00;19.52;;;-2.90;99.90;;;-144.05;80.18;125687.94;5014096;28;20174;-80
2023/01/18 04:02:07;;;;;;;36.15;18.48;;;-2.90;99.90;;;-144.05;80.17;125687.94;5032102;28;20026;-80
2023/01/18 04:04:34;;;;;;;37.22;18.27;;;-2.90;99.90;;;-144.05;80.07;125687.94;5014636;28;20461;-82
2023/01/18 04:06:59;;;;;;;35.85;18.63;;;-2.90;99.90;;;-144.05;80.09;125687.94;5032271;28;20036;-82
2023/01/18 04:09:26;;;;;;;44.03;19.35;;;-2.90;99.90;;;-144.05;79.60;125687.94;5031861;28;20396;-79
2023/01/18 04:11:52;;;;;;;37.83;18.60;;;-3.00;99.90;;;-144.05;79.90;125687.94;5014267;28;20036;-81
2023/01/18 04:14:18;;;;;;;37.97;19.50;;;-3.00;99.90;;;-144.05;79.99;125687.94;5032424;28;20025;-82
2023/01/18 04:16:44;;;;;;;39.10;19.30;;;-3.00;99.90;;;-144.05;79.66;125687.94;5016376;28;20091;-81
2023/01/18 04:19:10;;;;;;;37.33;18.05;;;-3.10;99.90;;;-144.05;79.34;125687.94;5033896;28;20021;-80
2023/01/18 04:21:37;;;;;;;33.35;18.45;;;-3.20;99.90;;;-144.05;79.28;125687.94;5034257;28;20075;-80
2023/01/18 04:24:04;;;;;;;39.10;18.52;;;-3.30;99.90;;;-144.05;79.76;125687.94;5037504;28;20121;-81
2023/01/18 04:26:32;;;;;;;35.17;17.38;;;-3.30;99.90;;;-144.05;79.58;125687.94;5015802;28;20033;-80
2023/01/18 04:29:00;;;;;;;37.38;18.33;;;-3.40;99.90;;;-144.05;79.79;125687.94;5015478;28;20029;-80
2023/01/18 04:31:26;;;;;;;45.88;23.08;;;-3.40;99.90;;;-144.05;79.90;125687.94;5033644;28;20025;-81
2023/01/18 04:33:51;;;;;;;36.55;18.92;;;-3.30;99.90;;;-144.05;79.80;125687.94;5034035;28;20121;-80
2023/01/18 04:36:20;;;;;;;41.10;19.20;;;-3.20;99.90;;;-144.05;80.03;125687.94;5027482;28;20025;-82
2023/01/18 04:38:46;;;;;;;44.17;19.63;;;-3.20;99.90;;;-144.05;80.03;125687.94;5035410;28;20572;-81
2023/01/18 04:41:12;;;;;;;35.33;19.02;;;-3.20;99.90;;;-144.05;79.70;125687.94;5036269;28;20093;-81
2023/01/18 04:43:37;;;;;;;41.60;18.40;;;-3.10;99.90;;;-144.05;79.84;125687.94;5043302;28;20171;-82
2023/01/18 04:46:04;;;;;;;35.42;18.52;;;-3.10;99.90;;;-144.05;79.47;125687.94;5025482;28;20088;-81
2023/01/18 04:48:29;;;;;;;43.88;19.75;;;-3.20;99.90;;;-144.05;79.99;125687.94;5020491;28;20040;-82
2023/01/18 04:50:55;;;;;;;36.47;19.25;;;-3.10;99.90;;;-144.05;80.19;125687.94;5045730;28;20042;-82
2023/01/18 04:53:21;;;;;;;43.13;18.27;;;-3.10;99.90;;;-144.05;79.69;125687.94;5041212;28;20476;-83
2023/01/18 04:55:47;;;;;;;38.30;19.50;;;-3.10;99.90;;;-144.05;79.70;125687.94;5045989;28;20163;-81
2023/01/18 04:58:14;;;;;;;40.80;18.20;;;-3.10;99.90;;;-144.05;79.67;125687.94;5022133;28;20025;-82
2023/01/18 05:00:39;;;;;;;41.47;19.67;;;-3.10;99.90;;;-144.05;79.70;125687.94;5040356;28;20040;-83
2023/01/18 05:03:11;;;;;;;34.40;19.42;;;-3.20;99.90;;;-144.05;79.43;125687.94;5023136;28;20037;-81
2023/01/18 05:05:38;;;;;;;42.42;21.13;;;-3.20;99.90;;;-144.05;79.97;125687.94;5022019;28;20041;-82
2023/01/18 05:08:04;;;;;;;38.42;20.25;;;-3.20;99.90;;;-144.05;80.33;125687.94;5021265;28;20120;-82
2023/01/18 05:10:30;;;;;;;42.33;21.42;;;-3.20;99.90;;;-144.05;80.62;125687.94;5037642;28;20121;-81
2023/01/18 05:12:55;;;;;;;49.33;22.58;;;-3.00;99.90;;;-144.05;80.52;125687.94;5020049;28;20124;-80
2023/01/18 05:15:21;;;;;;;46.08;21.40;;;-3.00;99.90;;;-144.05;80.61;125687.94;5019724;28;20033;-81
2023/01/18 05:17:47;;;;;;;46.60;21.63;;;-3.00;99.90;;;-144.05;80.07;125687.94;5020180;28;20033;-82
2023/01/18 05:20:13;;;;;;;47.53;21.92;;;-3.00;99.90;;;-144.05;79.74;125687.94;5021412;28;20140;-81
2023/01/18 05:22:39;;;;;;;42.35;19.27;;;-3.00;99.90;;;-144.05;79.85;125687.94;5040651;28;20091;-81
2023/01/18 05:25:06;;;;;;;46.67;21.02;;;-3.00;99.90;;;-144.05;79.75;125687.94;5023119;28;20041;-82
2023/01/18 05:27:32;;;;;;;39.88;20.48;;;-3.00;99.90;;;-144.05;79.72;125687.94;5042736;28;20036;-79
2023/01/18 05:29:58;;;;;;;37.92;18.40;;;-3.10;99.90;;;-144.05;79.71;125687.94;5022189;28;20087;-81
2023/01/18 05:32:25;;;;;;;45.63;20.13;;;-3.10;99.90;;;-144.05;79.62;125687.94;5042099;28;20037;-80
2023/01/18 05:34:50;;;;;;;44.38;22.08;;;-3.10;99.90;;;-144.05;80.22;125687.94;5039209;28;20108;-81
2023/01/18 05:37:16;;;;;;;41.92;21.80;;;-3.10;99.90;;;-144.05;80.74;125687.94;5021266;28;20091;-81
2023/01/18 05:39:42;;;;;;;45.53;21.33;;;-3.00;99.90;;;-144.05;80.53;125687.94;5023076;28;20367;-80
2023/01/18 05:42:08;;;;;;;46.72;21.38;;;-3.00;99.90;;;-144.05;80.54;125687.94;5021523;28;20033;-79
2023/01/18 05:44:34;;;;;;;47.40;21.17;;;-2.90;99.90;;;-144.05;79.84;125687.94;5020876;28;20029;-81
2023/01/18 05:47:00;;;;;;;42.83;21.30;;;-2.90;99.90;;;-144.05;80.18;125687.94;5038392;28;20037;-79
2023/01/18 05:49:28;;;;;;;45.35;21.40;;;-2.90;99.90;;;-144.05;79.77;125687.94;5020396;28;20033;-78
2023/01/18 05:51:54;;;;;;;41.15;20.10;;;-2.90;99.90;;;-144.05;79.95;125687.94;5018639;28;20528;-79
2023/01/18 05:54:20;;;;;;;45.50;20.92;;;-2.80;99.90;;;-144.05;79.84;125687.94;5020068;28;20097;-81
2023/01/18 05:56:46;;;;;;;49.05;21.67;;;-2.90;99.90;;;-144.05;80.07;125687.94;5019762;28;20077;-79
2023/01/18 05:59:14;;;;;;;45.53;20.17;;;-2.90;99.90;;;-144.05;80.11;125687.94;5036434;28;20040;-78
2023/01/18 06:01:41;;;;;;;51.80;22.75;;;-2.80;99.90;;;-144.05;80.11;125687.94;5036657;28;20031;-79
2023/01/18 06:04:08;;;;;;;56.08;23.38;;;-2.80;99.90;;;-144.05;79.99;125687.94;5018886;28;20037;-79
2023/01/18 06:06:33;;;;;;;49.78;22.90;;;-2.80;99.90;;;-144.05;79.85;125687.94;5037574;28;20040;-78
2023/01/18 06:09:00;;;;;;;50.22;22.83;;;-2.80;99.90;;;-144.05;80.02;125687.94;5037104;28;20400;-79
2023/01/18 06:11:26;;;;;;;51.67;22.85;;;-2.80;99.90;;;-144.05;80.25;125687.94;5019070;28;20052;-79
2023/01/18 06:13:52;;;;;;;44.92;23.25;;;-2.70;99.90;;;-144.05;80.02;125687.94;5036630;28;20040;-78
2023/01/18 06:16:18;;;;;;;49.65;23.10;;;-2.70;99.90;;;-144.05;79.43;125687.94;5037271;28;20089;-80
2023/01/18 06:18:44;;;;;;;45.53;21.95;;;-2.70;99.90;;;-144.05;79.20;125687.94;5036488;28;20550;-80
2023/01/18 06:21:10;;;;;;;52.10;20.95;;;-2.70;99.90;;;-144.05;79.31;125687.94;5037566;28;20033;-80
2023/01/18 06:23:37;;;;;;;43.10;21.23;;;-2.80;99.90;;;-144.05;79.13;125687.94;5043540;28;20025;-81
2023/01/18 06:26:03;;;;;;;41.50;20.80;;;-2.80;99.90;;;-144.05;79.29;125687.94;5044617;28;20025;-79
2023/01/18 06:28:29;;;;;;;47.60;21.73;;;-2.70;99.90;;;-144.05;79.04;125687.94;5048006;28;20029;-79
2023/01/18 06:30:55;;;;;;;44.03;20.90;;;-2.80;99.90;;;-144.05;79.33;125687.94;5048120;28;20045;-78
2023/01/18 06:33:23;;;;;;;46.20;21.67;;;-2.80;99.90;;;-144.05;79.37;125687.94;5049347;28;20040;-79
2023/01/18 06:35:49;;;;;;;48.78;23.20;;;-2.70;99.90;;;-144.05;79.42;125687.94;5052050;28;20025;-80
2023/01/18 06:38:15;;;;;;;46.47;23.25;;;-2.60;99.90;;;-144.05;79.43;125687.94;5052083;28;20083;-79
2023/01/18 06:40:41;;;;;;;43.83;22.55;;;-2.60;99.90;;;-144.05;79.21;125687.94;5051992;28;20081;-80
2023/01/18 06:43:09;;;;;;;49.20;25.20;;;-2.50;99.90;;;-144.05;79.30;125687.94;5046028;28;20038;-79
2023/01/18 06:45:35;;;;;;;46.17;22.25;;;-2.50;99.90;;;-144.05;78.92;125687.94;5045375;28;20216;-80
2023/01/18 06:48:00;;;;;;;43.53;21.75;;;-2.50;99.90;;;-144.05;79.15;125687.94;5041369;28;20037;-78
2023/01/18 06:50:26;;;;;;;45.70;22.85;;;-2.50;99.90;;;-144.05;78.97;125687.94;5037789;28;20033;-79
2023/01/18 06:52:54;;;;;;;47.80;22.17;;;-2.50;99.90;;;-144.05;78.66;125687.94;5036370;28;20033;-81
2023/01/18 06:55:20;;;;;;;44.80;23.05;;;-2.40;99.90;;;-144.05;79.03;125687.94;5036463;28;20029;-77
2023/01/18 06:57:47;;;;;;;39.38;21.35;;;-2.40;99.90;;;-144.05;78.50;125687.94;5038161;28;20033;-78
2023/01/18 07:00:15;;;;;;;46.53;22.20;;;-2.40;99.90;;;-144.05;78.37;125687.94;5018151;28;20033;-79
2023/01/18 07:02:41;;;;;;;45.72;21.50;;;-2.40;99.90;;;-144.05;78.08;125687.94;5039321;28;20124;-84
2023/01/18 07:05:07;;;;;;;40.38;21.63;;;-2.40;99.90;;;-144.05;78.08;125687.94;5020728;28;20457;-81
2023/01/18 07:07:33;;;;;;;41.83;21.52;;;-2.50;99.90;;;-144.05;77.76;125687.94;5039484;28;20030;-79
2023/01/18 07:09:59;;;;;;;50.45;21.48;;;-2.50;99.90;;;-144.05;77.89;125687.94;5040261;28;20030;-79
2023/01/18 07:12:25;;;;;;;51.10;21.50;;;-2.50;99.90;;;-144.05;77.69;125687.94;5017976;28;20523;-80
2023/01/18 07:14:51;;;;;;;37.58;20.52;;;-2.50;99.90;;;-144.05;77.58;125687.94;5019793;28;20096;-78
2023/01/18 07:17:17;;;;;;;46.85;22.92;;;-2.60;99.90;;;-144.05;77.79;125687.94;5021005;28;20065;-79
2023/01/18 07:19:43;;;;;;;47.40;21.55;;;-2.50;99.90;;;-144.05;77.85;125687.94;5019085;28;20117;-80
2023/01/18 07:22:09;;;;;;;44.55;22.15;;;-2.60;99.90;;;-144.05;77.59;125687.94;5037374;28;20037;-80
2023/01/18 07:24:35;;;;;;;42.60;21.88;;;-2.50;99.90;;;-144.05;77.77;125687.94;5018206;28;20041;-81
2023/01/18 07:27:02;;;;;;;42.30;21.90;;;-2.60;99.90;;;-144.05;78.00;125687.94;5018576;28;20525;-79
2023/01/18 07:29:27;;;;;;;45.58;22.55;;;-2.50;99.90;;;-144.05;77.73;125687.94;5036296;28;20033;-81
2023/01/18 07:31:53;;;;;;;47.58;22.55;;;-2.50;99.90;;;-144.05;77.60;125687.94;5035726;28;20103;-82
2023/01/18 07:34:19;;;;;;;42.53;20.80;;;-2.50;99.90;;;-144.05;77.51;125687.94;5036931;28;20424;-80
2023/01/18 07:36:45;;;;;;;43.90;22.55;;;-2.50;99.90;;;-144.05;77.71;125687.94;5018024;28;20056;-80
2023/01/18 07:39:11;;;;;;;48.08;22.50;;;-2.50;99.90;;;-144.05;77.68;125687.94;5036214;28;20062;-80
2023/01/18 07:41:38;;;;;;;42.00;22.50;;;-2.50;99.90;;;-144.05;77.48;125687.94;5035545;28;20293;-79
2023/01/18 07:44:05;;;;;;;43.40;21.60;;;-2.40;99.90;;;-144.05;77.84;125687.94;5035842;28;20037;-81
2023/01/18 07:46:31;;;;;;;41.78;21.50;;;-2.40;99.90;;;-144.05;77.43;125687.94;5018705;28;20029;-79
2023/01/18 07:48:57;;;;;;;45.58;21.85;;;-2.40;99.90;;;-144.05;77.47;125687.94;5042377;28;20022;-82
2023/01/18 07:51:23;;;;;;;48.15;22.27;;;-2.30;99.90;;;-144.05;77.12;125687.94;5037858;28;20440;-78
2023/01/18 07:53:55;;;;;;;46.85;24.25;;;-2.30;99.90;;;-144.05;77.11;125687.94;5018025;28;20037;-79
2023/01/18 07:56:23;;;;;;;41.45;21.25;;;-2.30;99.90;;;-144.05;76.95;125687.94;5035543;28;20112;-80
2023/01/18 07:58:51;;;;;;;43.40;21.27;;;-2.20;99.90;;;-144.05;76.88;125687.94;5035365;28;20091;-81
2023/01/18 08:01:21;;;;;;;40.85;20.83;;;-2.20;99.90;;;-144.05;76.52;125687.94;5036668;28;20033;-80
2023/01/18 08:03:50;;;;;;;42.95;22.13;;;-2.20;99.90;;;-144.05;76.33;125687.94;5035285;28;20034;-80
2023/01/18 08:06:24;;;;;;;46.42;22.13;;;-2.10;99.90;;;-144.05;76.40;125687.94;5017665;28;20518;-79
2023/01/18 08:08:51;;;;;;;39.90;21.25;;;-2.10;99.90;;;-144.05;76.20;125687.94;5036177;28;20064;-82
2023/01/18 08:11:18;;;;;;;47.80;23.05;;;-2.10;99.90;;;-144.05;76.20;125687.94;5035319;28;20038;-78
2023/01/18 08:13:44;;;;;;;42.03;21.42;;;-2.00;99.90;;;-144.05;76.00;125687.94;5035377;28;20400;-80
2023/01/18 08:16:11;;;;;;;41.60;21.20;;;-1.90;99.90;;;-144.05;75.57;125687.94;5018490;28;20065;-81
2023/01/18 08:18:38;;;;;;;42.35;22.30;;;-1.90;99.90;;;-144.05;75.33;125687.94;5035419;28;20052;-81
2023/01/18 08:21:08;;;;;;;43.13;22.67;;;-1.90;99.90;;;-144.05;75.05;125687.94;5017857;28;20325;-81
2023/01/18 08:23:33;;;;;;;42.10;21.50;;;-1.80;99.90;;;-144.05;75.18;125687.94;5018197;28;20132;-81
2023/01/18 08:26:02;;;;;;;45.00;20.55;;;-1.80;99.90;;;-144.05;74.96;125687.94;5017784;28;20061;-80
2023/01/18 08:28:28;;;;;;;41.22;21.45;;;-1.80;99.90;;;-144.05;75.18;125687.94;5033336;28;20025;-80
2023/01/18 08:31:12;;;;;;;38.15;21.05;;;-1.80;99.90;;;-144.05;74.90;125687.94;5016382;28;20164;-80
2023/01/18 08:33:44;;;;;;;43.53;21.55;;;-1.70;99.90;;;-144.05;74.81;125687.94;5016715;28;20029;-79
2023/01/18 08:36:22;;;;;;;45.92;21.48;;;-1.70;99.90;;;-144.05;74.91;125687.94;5016829;28;20034;-79
2023/01/18 08:38:52;;;;;;;47.47;24.63;;;-1.70;99.90;;;-144.05;74.81;125687.94;5016488;28;20030;-79
2023/01/18 08:41:20;;;;;;;41.10;22.80;;;-1.60;99.90;;;-144.05;74.96;125687.94;5016591;28;20079;-79
2023/01/18 08:43:51;;;;;;;40.30;22.45;;;-1.60;99.90;;;-144.05;74.88;125687.94;5034849;28;20455;-80
2023/01/18 08:46:18;;;;;;;38.92;21.75;;;-1.50;99.90;;;-144.05;74.59;125687.94;5035366;28;20061;-80
2023/01/18 08:48:44;;;;;;;45.65;23.08;;;-1.40;99.90;;;-144.05;74.21;125687.94;5034974;28;20040;-80
2023/01/18 08:51:10;;;;;;;41.78;20.70;;;-1.30;99.90;;;-144.05;74.13;125687.94;5035133;28;20037;-81
2023/01/18 08:53:36;;;;;;;42.35;21.98;;;-1.20;99.90;;;-144.05;73.89;125687.94;5035297;28;20033;-82
2023/01/18 08:56:06;;;;;;;43.92;22.83;;;-1.10;99.90;;;-144.05;73.52;125687.94;5018676;28;20025;-81
2023/01/18 08:58:32;;;;;;;43.22;21.08;;;-1.00;99.90;;;-144.05;73.24;125687.94;5016963;28;20033;-82
2023/01/18 09:00:58;;;;;;;42.60;20.85;;;-0.80;99.90;;;-144.05;72.81;125687.94;5034885;28;20067;-82
2023/01/18 09:03:24;;;;;;;36.35;20.40;;;-0.80;99.90;;;-144.05;72.61;125687.94;5035368;28;20026;-83
2023/01/18 09:05:50;;;;;;;40.33;20.27;;;-0.70;99.90;;;-144.05;72.34;125687.94;5019494;28;20025;-81
2023/01/18 09:08:16;;;;;;;36.38;20.83;;;-0.60;99.90;;;-144.05;72.14;125687.94;5018009;28;20037;-80
2023/01/18 09:10:44;;;;;;;39.63;21.08;;;-0.50;99.90;;;-144.05;72.02;125687.94;5018971;28;20033;-82
2023/01/18 09:13:09;;;;;;;40.92;21.33;;;-0.40;99.90;;;-144.05;71.75;125687.94;5021048;28;20426;-81
2023/01/18 09:15:37;;;;;;;39.47;19.73;;;-0.40;99.90;;;-144.05;71.79;125687.94;5020058;28;20041;-80
2023/01/18 09:18:05;;;;;;;38.92;20.30;;;-0.30;99.90;;;-144.05;71.91;125687.94;5036636;28;20026;-80
2023/01/18 09:20:34;;;;;;;41.55;20.67;;;-0.20;99.90;;;-144.05;71.37;125687.94;5020105;28;20026;-81
2023/01/18 09:23:08;;;;;;;35.58;21.42;;;-0.10;99.90;;;-144.05;71.10;125687.94;5037702;28;20026;-83
2023/01/18 09:25:37;;;;;;;37.47;20.10;;;0.00;99.90;;;-144.05;70.81;125687.94;5026180;28;20024;-83
2023/01/18 09:28:04;;;;;;;38.63;19.73;;;0.10;99.90;;;-144.05;70.51;125687.94;5036874;28;20021;-82
2023/01/18 09:30:31;;;;;;;32.17;19.92;;;0.10;99.90;;;-144.05;70.60;125687.94;5054600;28;20042;-81
2023/01/18 09:32:57;;;;;;;34.53;18.30;;;0.20;99.90;;;-144.05;70.18;125687.94;5028647;28;20374;-83
2023/01/18 09:35:23;;;;;;;41.38;19.27;;;0.30;99.90;;;-144.05;70.24;125687.94;5021607;28;20022;-82
2023/01/18 09:37:49;;;;;;;33.90;18.30;;;0.40;99.90;;;-144.05;70.20;125687.94;5022127;28;20041;-83
2023/01/18 09:40:42;;;;;;;31.38;18.52;;;0.50;99.90;;;-144.05;69.67;125687.94;5023102;28;20107;-80
2023/01/18 09:43:26;;;;;;;30.17;17.23;;;0.50;99.90;;;-144.05;69.42;125687.94;5022877;28;20036;-81
2023/01/18 09:45:52;;;;;;;32.55;18.20;;;0.50;99.90;;;-144.05;69.53;125687.94;5022403;28;20129;-82
2023/01/18 09:48:36;;;;;;;34.67;19.17;;;0.50;99.90;;;-144.05;69.36;125687.94;5022494;28;20315;-83
2023/01/18 09:51:24;;;;;;;35.83;18.55;;;0.40;99.90;;;-144.05;69.45;125687.94;5025306;28;20037;-79
2023/01/18 09:54:08;;;;;;;30.15;17.17;;;0.40;99.90;;;-144.05;69.34;125687.94;5025224;28;20067;-80
2023/01/18 09:57:11;;;;;;;32.35;18.02;;;0.50;99.90;;;-144.05;69.92;125687.94;5043494;28;20033;-81
2023/01/18 10:00:00;;;;;;;30.85;18.60;;;0.50;99.90;;;-144.05;69.97;125687.94;5022303;28;20037;-80
2023/01/18 10:02:39;;;;;;;29.52;17.70;;;0.60;99.90;;;-144.05;69.67;125687.94;5023524;28;20074;-80
2023/01/18 10:05:16;;;;;;;31.63;18.23;;;0.70;99.90;;;-144.05;69.80;125687.94;5039748;28;20057;-81
2023/01/18 10:08:19;;;;;;;36.80;19.13;;;0.70;99.90;;;-144.05;69.26;125687.94;5038651;28;20041;-79
2023/01/18 10:11:15;;;;;;;30.65;18.30;;;0.80;99.90;;;-144.05;69.36;125687.94;5038822;28;20037;-81
2023/01/18 10:14:02;;;;;;;28.70;18.23;;;0.90;99.90;;;-144.05;68.99;125687.94;5021822;28;20033;-83
2023/01/18 10:16:32;;;;;;;29.17;18.00;;;1.00;99.90;;;-144.05;68.55;125687.94;5025457;28;20189;-81
2023/01/18 10:18:58;;;;;;;32.55;17.58;;;1.10;99.90;;;-144.05;68.33;125687.94;5024796;28;20026;-81
2023/01/18 10:21:52;;;;;;;30.40;16.98;;;1.30;99.90;;;-144.05;67.24;125687.94;5042711;28;20044;-81
2023/01/18 10:24:30;;;;;;;27.48;17.00;;;1.40;99.90;;;-144.05;67.03;125687.94;5041851;28;20025;-79
2023/01/18 10:27:34;;;;;;;33.55;17.00;;;1.50;99.90;;;-144.05;67.18;125687.94;5046031;28;20033;-80
2023/01/18 10:30:34;;;;;;;27.95;16.77;;;1.50;99.90;;;-144.05;66.97;125687.94;5026501;28;20160;-79
2023/01/18 10:33:26;;;;;;;26.17;15.85;;;1.50;99.90;;;-144.05;67.02;125687.94;5026118;28;20120;-81
2023/01/18 10:36:05;;;;;;;29.05;15.55;;;1.50;99.90;;;-144.05;66.76;125687.94;5047826;28;20542;-81